Accueil
METAR-TAF:

METAR-TAF

Aéroports :

Vanua Lava, Vanuatu

latitude: 13-51-06S, longitude: 167-32-13E, altitude: 2 m

Observation

Le bulletin a été fait il y a 2 heures et 37 minutes, à 21:00 UTC
Vent 10 kt de sud
Température 26°C
Humidité 84%
Pression 1014 hPa
Visibilité 10 km ou plus
Quelques nuages à une hauteur de 1500 ft
Nuages fragmentés à une hauteur de 1800 ft
Ciel couvert à une hauteur de 4000 ft

METAR: NVSC 232100Z 19010KT 9999 FEW015 BKN018 OVC040 26/23 Q1014 RMK RESH

Heure: 10:37 (23:37 UTC)

Prévision

Prévision valable du 23 à 22 UTC au 24 à 20 UTC
Vent 10 kt de sud
Visibilité: 9000 m
Nuages épars à une hauteur de 2000 ft
Nuages fragmentés à une hauteur de 4000 ft
Nuages fragmentés à une hauteur de 1800 ft
faibles averses de pluie

TAF: NVSC 232220 2400/2424 19010KT 9999 SCT020 BKN040 INTER 2400/2406 9000 -SHRA BKN018

Observations et prévisions météorologiques de plus de 4000 aéroports (messages METAR et TAF).

Les stations disponibles sont représentées par des disques jaunes et rouges sur la carte.

Passer la souris dessus pour voir le nom de la station.

Cliquer dessus pour voir les observations et prévisions météorologiques.

Pour changer de carte: cliquez sur les boutons verts avec une croix noire pour zoomer, sur le bouton vert avec un tiret pour effectuer un zoom arrière, ou sur les flèches vertes pour les cartes adjacentes.


METAR-TAF: